createdAt,value
2022-09-27T00:01:33.066Z,11.34
2022-09-27T00:04:01.644Z,11.32
2022-09-27T00:06:31.588Z,11.29
2022-09-27T00:09:00.670Z,11.31
2022-09-27T00:11:31.657Z,11.35
2022-09-27T00:14:00.471Z,11.35
2022-09-27T00:16:31.384Z,11.37
2022-09-27T00:19:00.962Z,11.36
2022-09-27T00:21:30.565Z,11.44
2022-09-27T00:23:59.229Z,11.36
2022-09-27T00:26:27.317Z,11.36
2022-09-27T00:28:55.275Z,11.28
2022-09-27T00:31:25.055Z,11.30
2022-09-27T00:33:54.966Z,11.31
2022-09-27T00:36:23.933Z,11.27
2022-09-27T00:38:51.621Z,11.23
2022-09-27T00:41:22.001Z,11.32
2022-09-27T00:43:51.845Z,11.36
2022-09-27T00:46:27.571Z,11.33
2022-09-27T00:49:04.504Z,11.29
2022-09-27T00:51:35.395Z,11.32
2022-09-27T00:54:03.882Z,11.23
2022-09-27T00:56:33.372Z,11.23
2022-09-27T00:59:07.781Z,11.21
2022-09-27T01:01:36.038Z,11.22
2022-09-27T01:04:09.002Z,11.22
2022-09-27T01:06:37.432Z,11.28
2022-09-27T01:09:06.137Z,11.32
2022-09-27T01:11:42.450Z,11.40
2022-09-27T01:14:39.543Z,11.44
2022-09-27T01:17:23.337Z,11.40
2022-09-27T01:20:24.991Z,11.45
2022-09-27T01:23:07.054Z,11.40
2022-09-27T01:25:52.071Z,11.25
2022-09-27T01:28:26.450Z,11.29
2022-09-27T01:31:04.151Z,11.21
2022-09-27T01:33:44.493Z,11.02
2022-09-27T01:36:21.922Z,11.03
2022-09-27T01:39:02.723Z,10.99
2022-09-27T01:41:49.372Z,10.95
2022-09-27T01:44:36.740Z,10.95
2022-09-27T01:47:16.264Z,10.87
2022-09-27T01:49:57.887Z,10.92
2022-09-27T01:52:33.071Z,10.98
2022-09-27T01:55:05.271Z,10.86
2022-09-27T01:57:56.724Z,10.87
2022-09-27T02:00:26.864Z,10.89
2022-09-27T02:03:01.222Z,10.78
2022-09-27T02:05:36.948Z,10.75
2022-09-27T02:08:23.908Z,10.83
2022-09-27T02:10:57.853Z,10.86
2022-09-27T02:13:34.084Z,10.93
2022-09-27T02:16:29.578Z,10.88
2022-09-27T02:19:11.332Z,10.91
2022-09-27T02:21:46.461Z,10.91
2022-09-27T02:24:20.545Z,10.93
2022-09-27T02:26:57.914Z,10.87
2022-09-27T02:29:35.220Z,10.86
2022-09-27T02:32:03.312Z,10.88
2022-09-27T02:34:37.384Z,10.85
2022-09-27T02:37:05.390Z,10.72
2022-09-27T02:39:33.181Z,10.84
2022-09-27T02:42:06.201Z,10.85
2022-09-27T02:44:34.845Z,10.76
2022-09-27T02:47:20.901Z,10.79
2022-09-27T02:50:01.006Z,10.88
2022-09-27T02:53:07.901Z,10.90
2022-09-27T02:55:49.557Z,10.89
2022-09-27T02:58:56.601Z,10.80
2022-09-27T03:01:49.730Z,10.79
2022-09-27T03:04:39.368Z,10.78
2022-09-27T03:07:08.788Z,10.77
2022-09-27T03:09:44.383Z,10.73
2022-09-27T03:12:12.783Z,10.79
2022-09-27T03:14:40.506Z,10.69
2022-09-27T03:17:28.240Z,10.78
2022-09-27T03:20:14.411Z,10.77
2022-09-27T03:22:57.319Z,10.73
2022-09-27T03:25:25.022Z,10.73
2022-09-27T03:27:52.651Z,10.73
2022-09-27T03:30:20.360Z,10.70
2022-09-27T03:32:48.678Z,10.61
2022-09-27T03:35:35.037Z,10.69
2022-09-27T03:38:04.208Z,10.75
2022-09-27T03:40:31.933Z,10.66
2022-09-27T03:42:59.705Z,10.66
2022-09-27T03:45:27.681Z,10.63
2022-09-27T03:47:58.056Z,10.66
2022-09-27T03:50:26.357Z,10.67
2022-09-27T03:52:54.549Z,10.71
2022-09-27T03:55:23.993Z,10.70
2022-09-27T03:57:51.919Z,10.70
2022-09-27T04:00:20.729Z,10.63
2022-09-27T04:02:48.847Z,10.64
2022-09-27T04:05:36.666Z,10.63
2022-09-27T04:08:08.240Z,10.62
2022-09-27T04:10:37.413Z,10.61
2022-09-27T04:13:05.671Z,10.54
2022-09-27T04:15:39.344Z,10.53
2022-09-27T04:18:25.541Z,10.63
2022-09-27T04:20:58.845Z,10.62
2022-09-27T04:23:30.170Z,10.60
2022-09-27T04:25:59.705Z,10.56
2022-09-27T04:28:54.518Z,10.62
2022-09-27T04:31:22.801Z,10.64
2022-09-27T04:34:45.832Z,10.56
2022-09-27T04:37:13.879Z,10.53
2022-09-27T04:39:45.569Z,10.57
2022-09-27T04:42:14.779Z,10.53
2022-09-27T04:44:42.725Z,10.60
2022-09-27T04:47:10.694Z,10.61
2022-09-27T04:49:39.152Z,10.52
2022-09-27T04:52:06.960Z,10.63
2022-09-27T04:54:34.920Z,10.56
2022-09-27T04:57:12.169Z,10.53
2022-09-27T04:59:42.722Z,10.39
2022-09-27T05:02:10.659Z,10.41
2022-09-27T05:05:10.549Z,10.39
2022-09-27T05:07:41.552Z,10.37
2022-09-27T05:10:15.029Z,10.43
2022-09-27T05:12:42.684Z,10.42
2022-09-27T05:15:14.625Z,10.44
2022-09-27T05:18:00.939Z,10.41
2022-09-27T05:20:52.727Z,10.45
2022-09-27T05:23:27.580Z,10.47
2022-09-27T05:25:56.421Z,10.43
2022-09-27T05:28:25.091Z,10.43
2022-09-27T05:30:54.133Z,10.43
2022-09-27T05:33:22.475Z,10.48
2022-09-27T05:35:54.537Z,10.42
2022-09-27T05:38:25.730Z,10.47
2022-09-27T05:40:56.772Z,10.49
2022-09-27T05:43:25.538Z,10.41
2022-09-27T05:45:55.314Z,10.46
2022-09-27T05:48:24.711Z,10.55
2022-09-27T05:50:57.178Z,10.52
2022-09-27T05:53:25.077Z,10.48
2022-09-27T05:55:53.359Z,10.51
2022-09-27T05:58:28.700Z,10.37
2022-09-27T06:01:12.147Z,10.49
2022-09-27T06:04:00.052Z,10.38
2022-09-27T06:06:54.357Z,10.34
2022-09-27T06:09:22.149Z,10.39
2022-09-27T06:11:51.116Z,10.43
2022-09-27T06:14:19.514Z,10.43
2022-09-27T06:17:01.198Z,10.39
2022-09-27T06:19:35.564Z,10.41
2022-09-27T06:22:03.285Z,10.36
2022-09-27T06:24:39.845Z,10.42
2022-09-27T06:27:16.018Z,10.45
2022-09-27T06:29:50.813Z,10.36
2022-09-27T06:32:33.648Z,10.33
2022-09-27T06:35:16.988Z,10.10
2022-09-27T06:37:44.737Z,10.10
2022-09-27T06:40:12.416Z,10.15
2022-09-27T06:43:11.071Z,10.18
2022-09-27T06:46:06.062Z,10.07
2022-09-27T06:49:07.509Z,10.06
2022-09-27T06:51:35.825Z,10.21
2022-09-27T06:54:03.654Z,10.24
2022-09-27T06:56:31.894Z,10.29
2022-09-27T06:59:17.244Z,10.23
2022-09-27T07:02:05.001Z,10.17
2022-09-27T07:05:10.128Z,10.29
2022-09-27T07:08:11.846Z,10.35
2022-09-27T07:10:41.220Z,10.28
2022-09-27T07:13:10.589Z,10.24
2022-09-27T07:15:41.379Z,10.24
2022-09-27T07:18:12.891Z,10.20
2022-09-27T07:20:42.169Z,10.44
2022-09-27T07:23:11.890Z,10.53
2022-09-27T07:25:40.717Z,10.55
2022-09-27T07:28:13.203Z,10.65
2022-09-27T07:30:41.540Z,10.64
2022-09-27T07:33:10.129Z,10.63
2022-09-27T07:35:42.147Z,10.66
2022-09-27T07:38:13.118Z,10.73
2022-09-27T07:40:42.244Z,10.79
2022-09-27T07:43:13.246Z,10.90
2022-09-27T07:45:42.034Z,10.78
2022-09-27T07:48:17.693Z,10.93
2022-09-27T07:51:00.954Z,10.85
2022-09-27T07:53:46.837Z,10.68
2022-09-27T07:56:34.160Z,10.60
2022-09-27T07:59:02.513Z,10.77
2022-09-27T08:01:30.960Z,10.96
2022-09-27T08:03:59.463Z,11.19
2022-09-27T08:06:28.600Z,11.40
2022-09-27T08:08:57.619Z,11.63
2022-09-27T08:11:27.019Z,11.73
2022-09-27T08:13:56.996Z,11.49
2022-09-27T08:16:29.515Z,11.34
2022-09-27T08:19:16.929Z,11.19
2022-09-27T08:21:59.512Z,11.10
2022-09-27T08:24:53.268Z,10.98
2022-09-27T08:27:40.307Z,11.13
2022-09-27T08:30:28.272Z,11.17
2022-09-27T08:32:57.050Z,11.09
2022-09-27T08:35:26.550Z,11.22
2022-09-27T08:37:57.037Z,11.38
2022-09-27T08:40:28.041Z,11.60
2022-09-27T08:43:05.040Z,11.48
2022-09-27T08:45:37.228Z,11.72
2022-09-27T08:48:06.965Z,11.73
2022-09-27T08:50:40.275Z,11.77
2022-09-27T08:53:21.959Z,11.91
2022-09-27T08:55:52.342Z,12.08
2022-09-27T08:58:28.015Z,12.26
2022-09-27T09:01:00.243Z,12.43
2022-09-27T09:03:34.911Z,12.34
2022-09-27T09:06:15.941Z,12.61
2022-09-27T09:08:55.408Z,12.44
2022-09-27T09:11:53.608Z,12.00
2022-09-27T09:14:34.014Z,12.01
2022-09-27T09:17:13.367Z,12.11
2022-09-27T09:20:17.671Z,12.22
2022-09-27T09:23:23.465Z,12.11
2022-09-27T09:26:01.753Z,12.41
2022-09-27T09:28:39.706Z,12.30
2022-09-27T09:31:13.784Z,12.46
2022-09-27T09:33:48.106Z,12.58
2022-09-27T09:36:26.261Z,12.82
2022-09-27T09:38:57.649Z,12.70
2022-09-27T09:41:31.992Z,12.69
2022-09-27T09:44:03.274Z,12.88
2022-09-27T09:46:36.442Z,13.01
2022-09-27T09:49:10.927Z,13.16
2022-09-27T09:51:43.209Z,13.57
2022-09-27T09:54:20.609Z,13.24
2022-09-27T09:56:56.659Z,13.20
2022-09-27T09:59:28.880Z,12.86
2022-09-27T10:02:08.832Z,12.66
2022-09-27T10:04:36.658Z,12.54
2022-09-27T10:07:04.405Z,12.26
2022-09-27T10:09:36.373Z,12.42
2022-09-27T10:12:36.401Z,12.16
2022-09-27T10:15:06.397Z,12.31
2022-09-27T10:17:38.146Z,12.28
2022-09-27T10:20:09.441Z,12.49
2022-09-27T10:22:43.721Z,12.70
2022-09-27T10:25:47.357Z,12.60
2022-09-27T10:28:38.043Z,12.47
2022-09-27T10:31:08.283Z,12.36
2022-09-27T10:33:54.689Z,12.46
2022-09-27T10:36:26.308Z,12.34
2022-09-27T10:38:55.579Z,12.17
2022-09-27T10:41:46.133Z,12.33
2022-09-27T10:44:35.400Z,12.18
2022-09-27T10:47:27.048Z,12.12
2022-09-27T10:50:46.041Z,12.10
2022-09-27T10:53:23.354Z,11.60
2022-09-27T10:56:05.330Z,11.28
2022-09-27T10:58:36.873Z,10.76
2022-09-27T11:01:12.238Z,10.65
2022-09-27T11:04:01.168Z,10.24
2022-09-27T11:06:37.995Z,10.23
2022-09-27T11:09:23.271Z,10.19
2022-09-27T11:12:06.330Z,9.91
2022-09-27T11:14:35.733Z,9.84
2022-09-27T11:17:11.064Z,9.87
2022-09-27T11:19:59.777Z,9.91
2022-09-27T11:22:54.819Z,9.91
2022-09-27T11:25:35.030Z,9.66
2022-09-27T11:28:11.640Z,9.56
2022-09-27T11:30:50.763Z,9.67
2022-09-27T11:34:02.857Z,9.73
2022-09-27T11:36:54.586Z,9.67
2022-09-27T11:39:30.298Z,9.74
2022-09-27T11:42:14.158Z,9.47
2022-09-27T11:45:27.852Z,9.64
2022-09-27T11:48:01.801Z,9.68
2022-09-27T11:50:58.283Z,9.61
2022-09-27T11:53:53.118Z,9.52
2022-09-27T11:56:36.981Z,9.43
2022-09-27T11:59:25.107Z,9.58
2022-09-27T12:02:00.640Z,9.53
2022-09-27T12:04:57.463Z,9.74
2022-09-27T12:07:34.998Z,10.18
2022-09-27T12:10:10.404Z,10.17
2022-09-27T12:12:41.493Z,10.42
2022-09-27T12:15:16.832Z,10.58
2022-09-27T12:17:47.440Z,10.50
2022-09-27T12:20:22.212Z,10.53
2022-09-27T12:22:59.582Z,10.39
2022-09-27T12:26:02.280Z,10.51
2022-09-27T12:28:37.145Z,10.65
2022-09-27T12:31:28.385Z,10.69
2022-09-27T12:34:05.756Z,11.10
2022-09-27T12:36:38.289Z,11.74
2022-09-27T12:39:15.123Z,12.37
2022-09-27T12:41:52.524Z,12.58
2022-09-27T12:44:39.777Z,13.04
2022-09-27T12:47:14.791Z,12.84
2022-09-27T12:49:57.646Z,12.88
2022-09-27T12:52:34.344Z,13.09
2022-09-27T12:55:18.197Z,13.05
2022-09-27T12:58:01.011Z,13.76
2022-09-27T13:00:38.858Z,13.79
2022-09-27T13:03:26.119Z,13.01
2022-09-27T13:06:24.927Z,12.41
2022-09-27T13:09:08.281Z,12.53
2022-09-27T13:11:47.283Z,12.66
2022-09-27T13:14:21.388Z,12.41
2022-09-27T13:16:51.289Z,12.20
2022-09-27T13:19:39.916Z,12.46
2022-09-27T13:22:09.966Z,12.84
2022-09-27T13:24:56.179Z,13.30
2022-09-27T13:27:43.977Z,13.56
2022-09-27T13:30:50.070Z,14.17
2022-09-27T13:33:40.439Z,13.70
2022-09-27T13:36:28.308Z,13.90
2022-09-27T13:39:06.048Z,14.51
2022-09-27T13:42:04.673Z,14.36
2022-09-27T13:44:47.059Z,14.90
2022-09-27T13:47:27.483Z,14.93
2022-09-27T13:50:05.037Z,14.72
2022-09-27T13:52:56.709Z,13.96
2022-09-27T13:55:43.803Z,13.53
2022-09-27T13:58:48.251Z,13.08
2022-09-27T14:01:41.165Z,12.83
2022-09-27T14:04:19.699Z,12.85
2022-09-27T14:06:51.476Z,12.43
2022-09-27T14:09:22.350Z,12.45
2022-09-27T14:12:03.716Z,12.32
2022-09-27T14:14:34.681Z,11.98
2022-09-27T14:17:06.584Z,11.97
2022-09-27T14:19:42.159Z,11.85
2022-09-27T14:22:15.438Z,11.60
2022-09-27T14:24:57.973Z,11.78
2022-09-27T14:27:35.438Z,12.06
2022-09-27T14:30:17.045Z,14.40
2022-09-27T14:32:50.441Z,16.62
2022-09-27T14:35:46.666Z,15.79
2022-09-27T14:38:36.625Z,16.75
2022-09-27T14:41:08.847Z,16.65
2022-09-27T14:43:37.756Z,17.78
2022-09-27T14:46:07.364Z,19.11
2022-09-27T14:48:38.665Z,20.58
2022-09-27T14:51:20.846Z,20.91
2022-09-27T14:53:50.608Z,20.18
2022-09-27T14:56:22.443Z,18.45
2022-09-27T14:58:56.404Z,19.43
2022-09-27T15:01:24.295Z,21.07
2022-09-27T15:03:53.442Z,21.03
2022-09-27T15:06:24.656Z,20.73
2022-09-27T15:08:53.989Z,19.43
2022-09-27T15:11:21.845Z,16.65
2022-09-27T15:13:52.915Z,16.16
2022-09-27T15:16:24.315Z,15.84
2022-09-27T15:19:00.720Z,15.75
2022-09-27T15:21:32.056Z,15.71
2022-09-27T15:24:00.197Z,16.57
2022-09-27T15:26:37.348Z,16.65
2022-09-27T15:29:05.534Z,15.65
2022-09-27T15:31:35.047Z,15.97
2022-09-27T15:34:04.201Z,15.30
2022-09-27T15:37:00.087Z,15.25
2022-09-27T15:39:30.117Z,14.93
2022-09-27T15:42:06.749Z,14.67
2022-09-27T15:44:40.749Z,14.72
2022-09-27T15:47:41.344Z,15.86
2022-09-27T15:50:33.056Z,15.74
2022-09-27T15:53:05.427Z,15.42
2022-09-27T15:55:37.125Z,14.75
2022-09-27T15:58:08.085Z,14.43
2022-09-27T16:00:36.867Z,13.74
2022-09-27T16:03:04.979Z,13.41
2022-09-27T16:05:33.130Z,12.85
2022-09-27T16:08:02.539Z,12.86
2022-09-27T16:10:37.543Z,12.71
2022-09-27T16:13:05.116Z,12.43
2022-09-27T16:15:32.758Z,12.56
2022-09-27T16:18:00.643Z,12.49
2022-09-27T16:20:28.684Z,12.35
2022-09-27T16:22:56.996Z,12.30
2022-09-27T16:25:26.214Z,12.17
2022-09-27T16:27:53.776Z,12.15
2022-09-27T16:30:22.729Z,12.09
2022-09-27T16:32:50.410Z,12.08
2022-09-27T16:35:19.420Z,12.04
2022-09-27T16:37:47.136Z,12.03
2022-09-27T16:40:17.936Z,12.04
2022-09-27T16:42:49.580Z,12.00
2022-09-27T16:45:19.404Z,11.76
2022-09-27T16:47:48.356Z,11.61
2022-09-27T16:50:34.131Z,11.48
2022-09-27T16:53:01.685Z,11.40
2022-09-27T16:55:30.188Z,11.38
2022-09-27T16:58:00.508Z,11.29
2022-09-27T17:00:28.323Z,11.06
2022-09-27T17:02:56.218Z,11.02
2022-09-27T17:05:23.758Z,10.95
2022-09-27T17:07:52.441Z,10.93
2022-09-27T17:10:20.387Z,10.94
2022-09-27T17:12:48.075Z,10.85
2022-09-27T17:15:18.020Z,10.86
2022-09-27T17:17:49.258Z,10.78
2022-09-27T17:20:17.549Z,10.78
2022-09-27T17:22:45.230Z,10.75
2022-09-27T17:25:12.809Z,10.71
2022-09-27T17:27:40.336Z,10.67
2022-09-27T17:30:09.229Z,10.78
2022-09-27T17:32:38.471Z,10.63
2022-09-27T17:35:09.594Z,10.51
2022-09-27T17:37:37.331Z,10.49
2022-09-27T17:40:05.585Z,10.35
2022-09-27T17:42:33.548Z,10.29
2022-09-27T17:45:01.055Z,10.31
2022-09-27T17:47:46.661Z,10.25
2022-09-27T17:50:28.673Z,10.25
2022-09-27T17:52:58.799Z,10.19
2022-09-27T17:55:26.952Z,10.07
2022-09-27T17:57:54.624Z,10.02
2022-09-27T18:00:22.281Z,10.07
2022-09-27T18:02:49.862Z,10.00
2022-09-27T18:05:21.072Z,9.87
2022-09-27T18:07:48.684Z,9.80
2022-09-27T18:10:17.616Z,9.77
2022-09-27T18:12:45.291Z,9.78
2022-09-27T18:15:13.049Z,9.70
2022-09-27T18:17:40.586Z,9.66
2022-09-27T18:20:08.851Z,9.72
2022-09-27T18:22:38.768Z,9.65
2022-09-27T18:25:07.313Z,9.66
2022-09-27T18:27:34.836Z,9.66
2022-09-27T18:30:03.285Z,9.61
2022-09-27T18:32:30.876Z,9.58
2022-09-27T18:34:58.383Z,9.54
2022-09-27T18:37:26.872Z,9.50
2022-09-27T18:39:56.103Z,9.54
2022-09-27T18:42:23.716Z,9.53
2022-09-27T18:44:51.342Z,9.50
2022-09-27T18:47:19.150Z,9.48
2022-09-27T18:49:46.765Z,9.45
2022-09-27T18:52:14.701Z,9.45
2022-09-27T18:54:43.562Z,9.52
2022-09-27T18:57:12.474Z,9.51
2022-09-27T18:59:40.038Z,9.50
2022-09-27T19:02:07.682Z,9.54
2022-09-27T19:04:35.268Z,9.47
2022-09-27T19:07:03.083Z,9.50
2022-09-27T19:09:31.227Z,9.52
2022-09-27T19:11:58.828Z,9.52
2022-09-27T19:14:27.973Z,9.56
2022-09-27T19:16:56.643Z,9.56
2022-09-27T19:19:24.325Z,9.60
2022-09-27T19:21:51.913Z,9.66
2022-09-27T19:24:19.590Z,9.68
2022-09-27T19:26:47.264Z,9.73
2022-09-27T19:29:14.894Z,9.75
2022-09-27T19:31:44.046Z,9.76
2022-09-27T19:34:11.806Z,9.78
2022-09-27T19:36:39.405Z,9.80
2022-09-27T19:39:06.966Z,9.78
2022-09-27T19:41:34.548Z,9.76
2022-09-27T19:44:02.824Z,9.74
2022-09-27T19:46:30.433Z,9.77
2022-09-27T19:49:01.001Z,9.78
2022-09-27T19:51:29.159Z,9.75
2022-09-27T19:53:56.781Z,9.77
2022-09-27T19:56:25.700Z,9.74
2022-09-27T19:58:53.305Z,9.68
2022-09-27T20:01:22.629Z,9.65
2022-09-27T20:03:52.284Z,9.60
2022-09-27T20:06:22.113Z,9.58
2022-09-27T20:08:50.269Z,9.58
2022-09-27T20:11:19.344Z,9.60
2022-09-27T20:13:46.952Z,9.60
2022-09-27T20:16:15.896Z,9.65
2022-09-27T20:18:45.106Z,9.66
2022-09-27T20:21:13.374Z,9.67
2022-09-27T20:23:42.294Z,9.67
2022-09-27T20:26:11.672Z,9.68
2022-09-27T20:28:41.866Z,9.68
2022-09-27T20:31:11.141Z,9.71
2022-09-27T20:33:49.652Z,9.73
2022-09-27T20:36:18.935Z,9.71
2022-09-27T20:38:49.574Z,9.71
2022-09-27T20:41:19.461Z,9.72
2022-09-27T20:43:47.742Z,9.79
2022-09-27T20:46:17.396Z,9.79
2022-09-27T20:48:46.531Z,9.85
2022-09-27T20:51:15.213Z,9.88
2022-09-27T20:53:44.549Z,9.83
2022-09-27T20:56:19.543Z,9.85
2022-09-27T20:58:48.071Z,9.86
2022-09-27T21:01:16.289Z,9.86
2022-09-27T21:03:43.822Z,9.90
2022-09-27T21:06:12.839Z,9.86
2022-09-27T21:08:41.433Z,9.88
2022-09-27T21:11:10.527Z,9.90
2022-09-27T21:13:40.763Z,9.83
2022-09-27T21:16:10.238Z,9.86
2022-09-27T21:18:38.208Z,9.88
2022-09-27T21:21:08.548Z,9.84
2022-09-27T21:23:42.023Z,9.88
2022-09-27T21:26:14.354Z,9.84
2022-09-27T21:28:44.643Z,9.94
2022-09-27T21:31:17.644Z,9.90
2022-09-27T21:33:48.971Z,9.85
2022-09-27T21:36:16.574Z,9.88
2022-09-27T21:38:44.139Z,9.89
2022-09-27T21:41:14.528Z,9.90
2022-09-27T21:43:45.027Z,9.95
2022-09-27T21:46:14.334Z,9.94
2022-09-27T21:48:44.109Z,9.96
2022-09-27T21:51:14.355Z,9.99
2022-09-27T21:53:43.604Z,10.03
2022-09-27T21:56:12.569Z,10.10
2022-09-27T21:58:42.813Z,10.07
2022-09-27T22:01:12.459Z,10.10
2022-09-27T22:03:42.563Z,10.15
2022-09-27T22:06:12.273Z,10.08
2022-09-27T22:08:39.834Z,10.05
2022-09-27T22:11:08.534Z,10.04
2022-09-27T22:13:36.347Z,10.02
2022-09-27T22:16:06.492Z,10.06
2022-09-27T22:18:37.253Z,10.03
2022-09-27T22:21:06.651Z,10.01
2022-09-27T22:23:34.624Z,10.04
2022-09-27T22:26:12.921Z,10.02
2022-09-27T22:28:40.477Z,10.03
2022-09-27T22:31:10.816Z,10.03
2022-09-27T22:33:38.603Z,10.01
2022-09-27T22:36:06.679Z,10.00
2022-09-27T22:38:34.519Z,10.02
2022-09-27T22:41:03.212Z,10.03
2022-09-27T22:43:30.828Z,9.99
2022-09-27T22:46:00.103Z,10.06
2022-09-27T22:48:29.269Z,10.01
2022-09-27T22:50:57.787Z,9.98
2022-09-27T22:53:25.719Z,9.99
2022-09-27T22:56:01.820Z,10.00
2022-09-27T22:58:32.146Z,9.92
2022-09-27T23:01:00.269Z,9.90
2022-09-27T23:03:29.236Z,9.91
2022-09-27T23:06:02.201Z,9.93
2022-09-27T23:08:30.047Z,9.89
2022-09-27T23:11:03.354Z,9.89
2022-09-27T23:13:32.588Z,9.83
2022-09-27T23:16:04.538Z,9.92
2022-09-27T23:18:34.041Z,9.85
2022-09-27T23:21:03.535Z,9.82
2022-09-27T23:23:31.921Z,9.82
2022-09-27T23:26:01.184Z,9.81
2022-09-27T23:28:29.781Z,9.81
2022-09-27T23:30:57.560Z,9.77
2022-09-27T23:33:27.817Z,9.84
2022-09-27T23:35:56.645Z,9.78
2022-09-27T23:38:24.181Z,9.81
2022-09-27T23:40:51.836Z,9.83
2022-09-27T23:43:19.400Z,9.81
2022-09-27T23:45:46.872Z,9.76
2022-09-27T23:48:14.388Z,9.77
2022-09-27T23:50:44.112Z,9.77
2022-09-27T23:53:12.973Z,9.73
2022-09-27T23:55:40.582Z,9.76
2022-09-27T23:58:08.140Z,9.78
